< Typhoon 196125 1961 Season Typhoon 196127 >
Typhoon 196126 (BILLIE)
General InformationTrack Information on Google Maps || Disaster Info.ResourceGoogle EarthGE AnimationAtom FeedGeoJSON
Detalied Best Track (Time Zone = UTC)
Year Month Day Hour Lat. Long. Pressure (hPa) Wind (kt) Class Image Chart
1961 10 18 06 8.4 159.3 1006 0 2 -- Chart
1961 10 18 12 9.0 158.5 1008 0 2 -- Chart
1961 10 18 18 9.5 157.5 1004 0 2 -- Chart
1961 10 19 00 9.5 156.5 1006 0 2 -- Chart
1961 10 19 06 9.2 154.3 1002 0 2 -- Chart
1961 10 19 12 8.7 152.5 1005 0 2 -- Chart
1961 10 19 18 8.6 150.8 1000 0 2 -- Chart
1961 10 20 00 8.7 149.3 1004 0 2 -- Chart
1961 10 20 06 9.0 148.0 1000 0 2 -- Chart
1961 10 20 12 9.3 147.1 1002 0 2 -- Chart
1961 10 20 18 9.4 146.7 1000 0 2 -- Chart
1961 10 21 00 9.5 146.4 1002 0 2 -- Chart
1961 10 21 06 9.6 146.2 1000 0 2 -- Chart
1961 10 21 12 9.6 145.7 1002 0 2 -- Chart
1961 10 21 18 9.7 145.4 1000 0 2 -- Chart
1961 10 22 00 9.8 145.1 1000 0 2 -- Chart
1961 10 22 06 9.9 144.8 1000 0 2 -- Chart
1961 10 22 12 10.0 144.6 1000 0 2 -- Chart
1961 10 22 18 10.1 144.3 998 0 2 -- Chart
1961 10 23 00 10.1 143.9 998 0 2 -- Chart
1961 10 23 06 10.6 143.4 994 0 2 -- Chart
1961 10 23 12 11.3 142.9 994 0 2 -- Chart
1961 10 23 18 12.0 142.4 990 0 9 -- Chart
1961 10 24 00 13.1 141.8 990 0 9 -- Chart
1961 10 24 06 14.8 141.9 985 0 9 -- Chart
1961 10 24 12 15.5 142.1 985 0 9 -- Chart
1961 10 24 18 16.2 142.1 985 0 9 -- Chart
1961 10 25 00 17.0 142.1 985 0 9 -- Chart
1961 10 25 06 17.5 142.2 980 0 9 -- Chart
1961 10 25 12 18.5 142.2 980 0 9 -- Chart
1961 10 25 18 19.4 142.3 980 0 9 -- Chart
1961 10 26 00 20.5 142.5 975 0 9 -- Chart
1961 10 26 06 21.5 142.9 975 0 9 -- Chart
1961 10 26 12 22.6 143.1 970 0 9 -- Chart
1961 10 26 18 23.7 143.3 970 0 9 -- Chart
1961 10 27 00 25.1 143.8 970 0 9 -- Chart
1961 10 27 06 26.4 144.2 970 0 9 -- Chart
1961 10 27 12 27.8 144.7 970 0 9 -- Chart
1961 10 27 18 29.4 145.3 978 0 9 -- Chart
1961 10 28 00 31.0 145.8 975 0 9 -- Chart
1961 10 28 06 33.5 146.4 975 0 9 -- Chart
1961 10 28 12 36.0 147.2 970 0 9 -- Chart
1961 10 28 18 38.0 147.8 975 0 9 -- Chart
1961 10 29 00 40.0 148.5 975 0 9 -- Chart
1961 10 29 06 43.3 149.8 974 0 9 -- Chart
1961 10 29 12 46.7 151.4 972 0 9 -- Chart
1961 10 29 18 50.0 154.0 972 0 9 -- Chart
1961 10 30 00 53.3 157.0 972 0 6 -- Chart
1961 10 30 06 56.0 161.0 970 0 6 -- Chart
Japan Meteorological Agency Best Track Data | Correction Date : 1990-10-17
< Typhoon 196125 1961 Season Typhoon 196127 >

Help